Holtsville, New York
Current Conditions -  °F | °C
As of 6:56 PM on Saturday 22 Nov 2014 (Local Time) from KISP Reporting Station
Broken Clouds Broken Clouds  
Wind Chill: 36°   Ceiling: 9000
Heat Index: 43°   Visibility: 10mi
Dew Point: 22°   Wind: 14mph
Humidity: 43%   Direction: 240°WSW
Pressure: 30.23"   Gusts: 25mph
Location:  40.81°N, 73.04°W
Report Text: KISP 222356Z 24012G22KT 10SM FEW050 BKN090 BKN110 06/M06 A3023 RMK AO2 RAB20E29 SLP237 P0000 60000 T00611056 10067 20044 56011
Loading
Personal Weather Stations






























Interactive Weather Map New forecast layout! Learn more

10-Day Weather Forecast

Advertisements
Track Severe Weather on mobile